Time;durP1;ratioP1;P1;durP2;ratioP2;P2;SDS_P1;SDS_P2;PMS_P1;PMS_P2;Temp;Humidity;BMP_temperature;BMP_pressure;BME280_temperature;BME280_humidity;BME280_pressure;Samples;Min_cycle;Max_cycle;Signal;HPM_P1;HPM_P2
2024/01/10 00:00:08;;;;;;;7.13;6.43;;;;;;;;;;6255576;22;20397;-90
2024/01/10 00:02:35;;;;;;;8.10;4.80;;;;;;;;;;6254841;22;20373;-90
2024/01/10 00:05:01;;;;;;;9.27;6.13;;;;;;;;;;6255983;22;20950;-90
2024/01/10 00:07:26;;;;;;;4.93;3.90;;;;;;;;;;6289707;22;20369;-90
2024/01/10 00:09:52;;;;;;;8.37;4.77;;;;;;;;;;6256205;22;21201;-91
2024/01/10 00:12:18;;;;;;;9.40;4.00;;;;;;;;;;6257648;22;20400;-90
2024/01/10 00:14:45;;;;;;;6.90;6.20;;;;;;;;;;6255358;22;20480;-90
2024/01/10 00:17:11;;;;;;;9.50;5.30;;;;;;;;;;6257115;22;20411;-90
2024/01/10 00:19:37;;;;;;;12.50;7.50;;;;;;;;;;6255788;22;20382;-91
2024/01/10 00:22:04;;;;;;;5.93;4.90;;;;;;;;;;6256994;22;20388;-90
2024/01/10 00:24:30;;;;;;;10.33;4.90;;;;;;;;;;6256366;22;20373;-90
2024/01/10 00:26:57;;;;;;;6.93;6.27;;;;;;;;;;6254499;22;20405;-89
2024/01/10 00:29:26;;;;;;;9.97;4.80;;;;;;;;;;6253632;22;20385;-89
2024/01/10 00:31:53;;;;;;;21.23;7.60;;;;;;;;;;6251849;22;20369;-91
2024/01/10 00:34:19;;;;;;;5.33;4.90;;;;;;;;;;6258787;22;20434;-90
2024/01/10 00:36:45;;;;;;;11.47;6.30;;;;;;;;;;6254852;22;20437;-90
2024/01/10 00:39:13;;;;;;;5.47;5.03;;;;;;;;;;6260699;22;20378;-91
2024/01/10 00:41:39;;;;;;;16.70;5.67;;;;;;;;;;6258567;22;20439;-90
2024/01/10 00:44:05;;;;;;;6.17;4.90;;;;;;;;;;6221310;23;20387;-91
2024/01/10 00:46:31;;;;;;;5.80;5.27;;;;;;;;;;6194050;23;20401;-90
2024/01/10 00:48:57;;;;;;;7.80;6.57;;;;;;;;;;6196118;23;20471;-91
2024/01/10 00:51:23;;;;;;;5.67;5.17;;;;;;;;;;6199208;23;20417;-91
2024/01/10 00:53:49;;;;;;;9.43;6.07;;;;;;;;;;6196091;23;20371;-90
2024/01/10 00:56:15;;;;;;;11.13;6.40;;;;;;;;;;6195583;23;20955;-90
2024/01/10 00:58:41;;;;;;;8.30;5.83;;;;;;;;;;6196171;23;20426;-90
2024/01/10 01:01:07;;;;;;;8.43;4.57;;;;;;;;;;6193946;23;20465;-91
2024/01/10 01:03:33;;;;;;;7.10;6.07;;;;;;;;;;6196506;23;20429;-90
2024/01/10 01:05:59;;;;;;;11.20;5.07;;;;;;;;;;6199784;23;20383;-91
2024/01/10 01:08:25;;;;;;;10.50;6.90;;;;;;;;;;6199286;23;20363;-91
2024/01/10 01:10:51;;;;;;;7.53;4.93;;;;;;;;;;6195627;23;20410;-91
2024/01/10 01:13:17;;;;;;;11.70;5.87;;;;;;;;;;6192145;23;20424;-92
2024/01/10 01:15:44;;;;;;;8.07;6.80;;;;;;;;;;6246177;22;20420;-90
2024/01/10 01:18:12;;;;;;;6.10;4.80;;;;;;;;;;6257062;22;20468;-91
2024/01/10 01:20:38;;;;;;;9.60;5.70;;;;;;;;;;6254566;22;20693;-89
2024/01/10 01:23:04;;;;;;;15.53;7.23;;;;;;;;;;6255562;22;20417;-89
2024/01/10 01:25:30;;;;;;;11.23;5.03;;;;;;;;;;6255663;22;20378;-91
2024/01/10 01:27:56;;;;;;;7.10;4.40;;;;;;;;;;6257038;22;20381;-89
2024/01/10 01:30:22;;;;;;;10.43;6.00;;;;;;;;;;6258053;22;20370;-89
2024/01/10 01:32:49;;;;;;;8.97;7.00;;;;;;;;;;6282894;22;20362;-89
2024/01/10 01:35:21;;;;;;;8.27;5.53;;;;;;;;;;6255500;22;20478;-89
2024/01/10 01:37:47;;;;;;;7.37;4.10;;;;;;;;;;6257471;22;20734;-91
2024/01/10 01:40:13;;;;;;;5.40;4.47;;;;;;;;;;6257621;22;20761;-90
2024/01/10 01:42:39;;;;;;;9.77;5.50;;;;;;;;;;6285850;22;20399;-91
2024/01/10 01:45:06;;;;;;;8.23;5.47;;;;;;;;;;6256704;22;20414;-90
2024/01/10 01:47:32;;;;;;;8.57;5.93;;;;;;;;;;6261359;22;20392;-91
2024/01/10 01:49:58;;;;;;;6.17;4.20;;;;;;;;;;6281845;22;20456;-91
2024/01/10 01:52:25;;;;;;;10.30;5.63;;;;;;;;;;6282408;22;20396;-89
2024/01/10 01:54:51;;;;;;;5.85;5.30;;;;;;;;;;6256961;22;20464;-90
2024/01/10 01:57:17;;;;;;;7.60;4.50;;;;;;;;;;6256230;22;20366;-91
2024/01/10 01:59:43;;;;;;;10.27;4.23;;;;;;;;;;6255644;22;20392;-90
2024/01/10 02:02:09;;;;;;;9.03;4.57;;;;;;;;;;6257662;22;20369;-89
2024/01/10 02:04:36;;;;;;;10.17;5.60;;;;;;;;;;6255124;22;20475;-89
2024/01/10 02:07:02;;;;;;;8.53;5.67;;;;;;;;;;6256888;22;20534;-89
2024/01/10 02:09:28;;;;;;;11.30;5.10;;;;;;;;;;6255619;22;20377;-90
2024/01/10 02:11:54;;;;;;;10.83;5.33;;;;;;;;;;6258159;22;20853;-91
2024/01/10 02:14:20;;;;;;;14.03;6.27;;;;;;;;;;6280107;22;20373;-89
2024/01/10 02:16:46;;;;;;;6.90;5.47;;;;;;;;;;6255051;22;20508;-91
2024/01/10 02:19:38;;;;;;;10.87;6.93;;;;;;;;;;6280022;22;20454;-91
2024/01/10 02:22:04;;;;;;;9.63;4.67;;;;;;;;;;6251789;22;20441;-90
2024/01/10 02:24:31;;;;;;;5.17;4.77;;;;;;;;;;6256054;22;20393;-91
2024/01/10 02:26:57;;;;;;;13.63;4.77;;;;;;;;;;6284982;22;20373;-91
2024/01/10 02:29:24;;;;;;;6.27;4.50;;;;;;;;;;6254973;22;20492;-91
2024/01/10 02:31:50;;;;;;;10.00;5.07;;;;;;;;;;6255950;22;20393;-89
2024/01/10 02:34:16;;;;;;;11.23;6.13;;;;;;;;;;6255171;22;20380;-90
2024/01/10 02:36:41;;;;;;;5.43;3.80;;;;;;;;;;6281256;22;20433;-93
2024/01/10 02:39:07;;;;;;;11.17;4.70;;;;;;;;;;6256067;22;20396;-91
2024/01/10 02:41:35;;;;;;;7.13;4.80;;;;;;;;;;6279194;22;20365;-92
2024/01/10 02:44:01;;;;;;;9.30;5.63;;;;;;;;;;6252868;22;20856;-90
2024/01/10 02:46:27;;;;;;;6.20;3.30;;;;;;;;;;6254067;22;20373;-92
2024/01/10 02:48:55;;;;;;;9.57;5.70;;;;;;;;;;6252684;22;20397;-89
2024/01/10 02:51:21;;;;;;;5.70;4.30;;;;;;;;;;6252492;22;20384;-93
2024/01/10 02:53:47;;;;;;;6.07;5.37;;;;;;;;;;6256011;22;20381;-91
2024/01/10 02:56:13;;;;;;;8.53;5.67;;;;;;;;;;6280446;22;20420;-89
2024/01/10 02:58:39;;;;;;;9.13;6.17;;;;;;;;;;6252894;22;20373;-89
2024/01/10 03:01:05;;;;;;;6.47;5.87;;;;;;;;;;6252394;22;20925;-89
2024/01/10 03:03:31;;;;;;;6.80;5.43;;;;;;;;;;6255841;22;20392;-89
2024/01/10 03:05:57;;;;;;;13.20;6.23;;;;;;;;;;6253507;22;21149;-90
2024/01/10 03:08:22;;;;;;;11.77;8.00;;;;;;;;;;6255218;22;20430;-91
2024/01/10 03:10:48;;;;;;;6.33;5.30;;;;;;;;;;6254578;22;20384;-89
2024/01/10 03:13:14;;;;;;;12.83;5.47;;;;;;;;;;6255997;22;20356;-89
2024/01/10 03:15:40;;;;;;;8.63;4.53;;;;;;;;;;6257067;22;20439;-90
2024/01/10 03:18:06;;;;;;;8.60;6.93;;;;;;;;;;6282427;22;20369;-89
2024/01/10 03:20:32;;;;;;;8.10;5.60;;;;;;;;;;6255527;22;20376;-90
2024/01/10 03:22:58;;;;;;;8.90;6.97;;;;;;;;;;6257564;22;21267;-90
2024/01/10 03:25:24;;;;;;;8.23;6.70;;;;;;;;;;6255257;22;20377;-91
2024/01/10 03:27:50;;;;;;;16.13;6.00;;;;;;;;;;6255690;22;20412;-90
2024/01/10 03:30:18;;;;;;;5.73;5.17;;;;;;;;;;6255711;22;20389;-91
2024/01/10 03:32:44;;;;;;;8.60;5.87;;;;;;;;;;6257220;22;20385;-90
2024/01/10 03:35:10;;;;;;;10.63;6.00;;;;;;;;;;6255939;22;20373;-90
2024/01/10 03:37:36;;;;;;;7.77;6.30;;;;;;;;;;6257116;22;20376;-90
2024/01/10 03:40:02;;;;;;;13.77;5.23;;;;;;;;;;6255889;22;20387;-91
2024/01/10 03:42:28;;;;;;;7.80;5.20;;;;;;;;;;6255272;22;20401;-88
2024/01/10 03:44:54;;;;;;;13.63;5.50;;;;;;;;;;6253414;22;20434;-90
2024/01/10 03:47:21;;;;;;;15.63;6.17;;;;;;;;;;6257139;22;20362;-91
2024/01/10 03:49:47;;;;;;;8.37;5.13;;;;;;;;;;6255935;22;20390;-90
2024/01/10 03:52:13;;;;;;;7.43;5.43;;;;;;;;;;6255647;22;20487;-90
2024/01/10 03:54:40;;;;;;;8.63;4.53;;;;;;;;;;6257262;22;20381;-91
2024/01/10 03:57:06;;;;;;;6.53;4.37;;;;;;;;;;6256804;22;20475;-90
2024/01/10 03:59:32;;;;;;;10.03;5.47;;;;;;;;;;6257136;22;20381;-90
2024/01/10 04:02:00;;;;;;;7.10;6.00;;;;;;;;;;6256531;22;20382;-90
2024/01/10 04:04:26;;;;;;;5.30;3.93;;;;;;;;;;6280743;22;20851;-90
2024/01/10 04:06:52;;;;;;;8.63;5.60;;;;;;;;;;6255458;22;20448;-90
2024/01/10 04:09:18;;;;;;;9.13;5.97;;;;;;;;;;6253304;22;20423;-90
2024/01/10 04:11:45;;;;;;;7.63;5.77;;;;;;;;;;6254189;22;20382;-90
2024/01/10 04:14:11;;;;;;;12.83;6.60;;;;;;;;;;6256877;22;20365;-89
2024/01/10 04:16:37;;;;;;;6.73;5.10;;;;;;;;;;6255329;22;20700;-91
2024/01/10 04:19:03;;;;;;;10.63;4.67;;;;;;;;;;6257798;22;20387;-91
2024/01/10 04:21:29;;;;;;;10.73;5.43;;;;;;;;;;6256815;22;20381;-90
2024/01/10 04:23:55;;;;;;;10.33;5.57;;;;;;;;;;6256318;22;20397;-91
2024/01/10 04:26:21;;;;;;;7.00;5.57;;;;;;;;;;6280503;22;20377;-91
2024/01/10 04:28:47;;;;;;;7.00;5.60;;;;;;;;;;6258664;22;20797;-91
2024/01/10 04:31:13;;;;;;;5.33;4.40;;;;;;;;;;6277877;22;20380;-90
2024/01/10 04:33:39;;;;;;;7.80;5.23;;;;;;;;;;6255318;22;20389;-90
2024/01/10 04:36:06;;;;;;;9.90;7.27;;;;;;;;;;6255012;22;20449;-91
2024/01/10 04:38:32;;;;;;;7.33;5.20;;;;;;;;;;6254496;22;20861;-91
2024/01/10 04:40:58;;;;;;;5.83;4.77;;;;;;;;;;6254331;22;20389;-90
2024/01/10 04:43:24;;;;;;;11.40;4.90;;;;;;;;;;6255756;22;21073;-91
2024/01/10 04:45:50;;;;;;;6.60;5.77;;;;;;;;;;6255652;22;20380;-91
2024/01/10 04:48:16;;;;;;;11.57;5.93;;;;;;;;;;6256914;22;20403;-91
2024/01/10 04:50:42;;;;;;;9.83;5.37;;;;;;;;;;6255634;22;20439;-91
2024/01/10 04:53:08;;;;;;;7.13;4.03;;;;;;;;;;6254431;22;20468;-92
2024/01/10 04:55:34;;;;;;;12.27;6.53;;;;;;;;;;6255466;22;20460;-90
2024/01/10 04:58:00;;;;;;;6.80;5.63;;;;;;;;;;6256171;22;20402;-91
2024/01/10 05:00:26;;;;;;;10.97;5.30;;;;;;;;;;6281566;22;20426;-90
2024/01/10 05:02:52;;;;;;;13.53;8.53;;;;;;;;;;6259151;22;20852;-91
2024/01/10 05:05:23;;;;;;;9.97;5.90;;;;;;;;;;6256164;22;20373;-92
2024/01/10 05:07:49;;;;;;;11.27;6.43;;;;;;;;;;6256397;22;20400;-91
2024/01/10 05:10:15;;;;;;;11.57;5.30;;;;;;;;;;6255182;22;20381;-90
2024/01/10 05:12:41;;;;;;;10.63;5.33;;;;;;;;;;6255199;22;20392;-92
2024/01/10 05:15:08;;;;;;;8.90;6.37;;;;;;;;;;6253658;22;20458;-92
2024/01/10 05:17:34;;;;;;;10.17;6.03;;;;;;;;;;6254597;22;20385;-88
2024/01/10 05:20:01;;;;;;;8.03;5.33;;;;;;;;;;6252251;22;20390;-90
2024/01/10 05:22:27;;;;;;;10.30;6.60;;;;;;;;;;6255545;22;20385;-90
2024/01/10 05:24:53;;;;;;;11.73;7.77;;;;;;;;;;6252249;22;20454;-91
2024/01/10 05:27:18;;;;;;;21.70;7.57;;;;;;;;;;6253726;22;20389;-92
2024/01/10 05:29:46;;;;;;;12.90;9.73;;;;;;;;;;6279467;22;20469;-89
2024/01/10 05:32:12;;;;;;;13.10;6.70;;;;;;;;;;6255683;22;20442;-91
2024/01/10 05:34:37;;;;;;;17.07;7.40;;;;;;;;;;6279542;22;20419;-91
2024/01/10 05:37:04;;;;;;;10.90;6.27;;;;;;;;;;6257138;22;20416;-91
2024/01/10 05:39:30;;;;;;;11.93;6.60;;;;;;;;;;6252934;22;20416;-91
2024/01/10 05:41:56;;;;;;;11.80;7.73;;;;;;;;;;6253270;22;20879;-91
2024/01/10 05:44:22;;;;;;;11.73;7.17;;;;;;;;;;6279657;22;20833;-90
2024/01/10 05:46:47;;;;;;;8.70;5.90;;;;;;;;;;6253410;22;20404;-90
2024/01/10 05:49:16;;;;;;;7.30;5.60;;;;;;;;;;6254932;22;20385;-90
2024/01/10 05:51:42;;;;;;;12.60;5.77;;;;;;;;;;6253277;22;21209;-90
2024/01/10 05:54:08;;;;;;;14.93;6.90;;;;;;;;;;6252898;22;20433;-90
2024/01/10 05:56:34;;;;;;;10.00;7.70;;;;;;;;;;6251770;22;20436;-90
2024/01/10 05:59:01;;;;;;;14.10;5.80;;;;;;;;;;6256394;22;20383;-90
2024/01/10 06:01:29;;;;;;;7.50;5.90;;;;;;;;;;6257259;22;20393;-90
2024/01/10 06:03:55;;;;;;;8.00;6.77;;;;;;;;;;6253433;22;20389;-90
2024/01/10 06:06:21;;;;;;;6.93;6.17;;;;;;;;;;6253533;22;20393;-90
2024/01/10 06:08:47;;;;;;;6.43;5.70;;;;;;;;;;6255918;22;20380;-93
2024/01/10 06:11:13;;;;;;;16.43;8.60;;;;;;;;;;6254979;22;20443;-89
2024/01/10 06:13:39;;;;;;;10.03;7.73;;;;;;;;;;6255519;22;20401;-91
2024/01/10 06:16:05;;;;;;;7.27;6.53;;;;;;;;;;6257381;22;20504;-91
2024/01/10 06:18:31;;;;;;;11.07;6.63;;;;;;;;;;6255322;22;20535;-91
2024/01/10 06:20:57;;;;;;;8.60;6.70;;;;;;;;;;6284115;22;20446;-90
2024/01/10 06:23:23;;;;;;;13.93;7.30;;;;;;;;;;6258214;22;20892;-90
2024/01/10 06:25:49;;;;;;;5.63;5.07;;;;;;;;;;6283650;22;20381;-90
2024/01/10 06:28:15;;;;;;;16.75;8.25;;;;;;;;;;6257900;22;20448;-91
2024/01/10 06:30:41;;;;;;;10.73;7.37;;;;;;;;;;6258910;22;20146;-91
2024/01/10 06:33:07;;;;;;;8.60;6.60;;;;;;;;;;6282072;22;20358;-91
2024/01/10 06:35:34;;;;;;;12.10;6.23;;;;;;;;;;6260960;22;20437;-90
2024/01/10 06:38:03;;;;;;;11.33;6.27;;;;;;;;;;6255372;22;20381;-92
2024/01/10 06:40:29;;;;;;;11.87;6.37;;;;;;;;;;6255251;22;21247;-91
2024/01/10 06:42:56;;;;;;;17.53;6.20;;;;;;;;;;6254063;22;20369;-92
2024/01/10 06:45:22;;;;;;;9.67;7.07;;;;;;;;;;6254961;22;20391;-92
2024/01/10 06:47:48;;;;;;;11.20;5.43;;;;;;;;;;6254283;22;20381;-92
2024/01/10 06:50:15;;;;;;;11.70;5.53;;;;;;;;;;6255535;22;20392;-92
2024/01/10 06:52:41;;;;;;;7.93;5.50;;;;;;;;;;6253241;22;20390;-91
2024/01/10 06:55:08;;;;;;;14.10;5.93;;;;;;;;;;6258537;22;20754;-92
2024/01/10 06:57:34;;;;;;;58.90;5.70;;;;;;;;;;6256830;22;21077;-92
2024/01/10 07:00:10;;;;;;;6.10;5.50;;;;;;;;;;6217318;23;20462;-91
2024/01/10 07:02:53;;;;;;;10.17;7.57;;;;;;;;;;6198289;23;20379;-91
2024/01/10 07:05:19;;;;;;;9.23;4.97;;;;;;;;;;6196899;23;20381;-92
2024/01/10 07:07:45;;;;;;;8.30;5.57;;;;;;;;;;6196672;23;20398;-90
2024/01/10 07:10:11;;;;;;;6.30;5.23;;;;;;;;;;6196100;23;20414;-90
2024/01/10 07:12:37;;;;;;;11.73;6.33;;;;;;;;;;6195878;23;20809;-92
2024/01/10 07:15:04;;;;;;;6.60;5.60;;;;;;;;;;6195264;23;20403;-92
2024/01/10 07:17:30;;;;;;;9.80;7.33;;;;;;;;;;6193392;23;20379;-92
2024/01/10 07:19:57;;;;;;;7.77;5.20;;;;;;;;;;6197783;23;20433;-92
2024/01/10 07:22:26;;;;;;;10.47;6.40;;;;;;;;;;6194657;23;20606;-91
2024/01/10 07:24:52;;;;;;;12.60;5.87;;;;;;;;;;6195066;23;20446;-92
2024/01/10 07:27:18;;;;;;;12.10;6.70;;;;;;;;;;6192303;23;20415;-89
2024/01/10 07:29:44;;;;;;;6.67;4.80;;;;;;;;;;6194707;23;20382;-90
2024/01/10 07:32:11;;;;;;;10.40;6.57;;;;;;;;;;6192373;23;20438;-90
2024/01/10 07:34:37;;;;;;;7.00;6.33;;;;;;;;;;6196037;23;20429;-90
2024/01/10 07:37:03;;;;;;;12.47;7.00;;;;;;;;;;6213797;22;20433;-90
2024/01/10 07:39:29;;;;;;;9.77;5.90;;;;;;;;;;6257176;22;20408;-91
2024/01/10 07:41:56;;;;;;;9.20;6.20;;;;;;;;;;6254210;22;20450;-90
2024/01/10 07:44:22;;;;;;;8.30;5.03;;;;;;;;;;6258435;22;20421;-90
2024/01/10 07:46:48;;;;;;;12.47;7.93;;;;;;;;;;6258472;22;20382;-91
2024/01/10 07:49:16;;;;;;;9.70;7.87;;;;;;;;;;6260069;22;20397;-90
2024/01/10 07:51:42;;;;;;;6.80;6.10;;;;;;;;;;6261596;22;20484;-91
2024/01/10 07:54:18;;;;;;;20.63;9.80;;;;;;;;;;6268312;22;20380;-91
2024/01/10 07:56:45;;;;;;;7.43;5.60;;;;;;;;;;6234489;22;20457;-91
2024/01/10 07:59:15;;;;;;;8.97;5.77;;;;;;;;;;6188359;23;20407;-91
2024/01/10 08:01:42;;;;;;;10.50;6.77;;;;;;;;;;6181682;23;20386;-92
2024/01/10 08:04:08;;;;;;;8.33;6.90;;;;;;;;;;6186873;23;20363;-93
2024/01/10 08:06:35;;;;;;;11.67;6.00;;;;;;;;;;6181070;23;20383;-92
2024/01/10 08:09:04;;;;;;;11.53;6.70;;;;;;;;;;6181345;23;20387;-91
2024/01/10 08:19:21;;;;;;;13.27;8.90;;;;;;;;;;6295488;22;20420;-92
2024/01/10 08:21:47;;;;;;;8.27;6.43;;;;;;;;;;6269793;22;20471;-92
2024/01/10 08:24:13;;;;;;;19.10;9.20;;;;;;;;;;6272024;22;20377;-94
2024/01/10 08:26:39;;;;;;;8.63;6.83;;;;;;;;;;6270306;22;20384;-93
2024/01/10 08:29:05;;;;;;;17.40;8.47;;;;;;;;;;6268934;22;20403;-92
2024/01/10 08:31:31;;;;;;;12.43;6.40;;;;;;;;;;6269038;22;20389;-92
2024/01/10 08:33:57;;;;;;;7.97;6.90;;;;;;;;;;6269027;22;20804;-91
2024/01/10 08:36:24;;;;;;;13.23;8.07;;;;;;;;;;6268108;22;20421;-92
2024/01/10 08:38:51;;;;;;;11.37;8.33;;;;;;;;;;6268940;22;20376;-92
2024/01/10 08:41:19;;;;;;;12.77;7.37;;;;;;;;;;6267355;22;20381;-92
2024/01/10 08:43:45;;;;;;;12.03;9.63;;;;;;;;;;6268853;22;20382;-92
2024/01/10 08:46:11;;;;;;;11.90;7.27;;;;;;;;;;6264392;22;20400;-91
2024/01/10 08:48:37;;;;;;;15.63;9.00;;;;;;;;;;6267208;22;20386;-90
2024/01/10 08:51:03;;;;;;;17.27;8.43;;;;;;;;;;6266094;22;20373;-90
2024/01/10 08:53:31;;;;;;;13.17;9.33;;;;;;;;;;6266830;22;20378;-90
2024/01/10 08:55:57;;;;;;;13.67;8.67;;;;;;;;;;6264536;22;20421;-92
2024/01/10 08:58:23;;;;;;;14.40;8.93;;;;;;;;;;6266196;22;20733;-92
2024/01/10 09:00:49;;;;;;;15.00;8.17;;;;;;;;;;6265367;22;20405;-91
2024/01/10 09:03:15;;;;;;;12.23;8.30;;;;;;;;;;6264778;22;20378;-91
2024/01/10 09:05:41;;;;;;;17.00;9.10;;;;;;;;;;6265326;22;20384;-90
2024/01/10 09:08:07;;;;;;;8.07;6.77;;;;;;;;;;6268033;22;20382;-93
2024/01/10 09:10:33;;;;;;;13.30;8.70;;;;;;;;;;6266376;22;20389;-93
2024/01/10 09:13:00;;;;;;;12.30;7.20;;;;;;;;;;6268341;22;20386;-93
2024/01/10 09:15:26;;;;;;;12.80;6.90;;;;;;;;;;6267801;22;20425;-93
2024/01/10 09:17:52;;;;;;;15.40;8.27;;;;;;;;;;6292962;22;20370;-93
2024/01/10 09:20:27;;;;;;;13.90;9.67;;;;;;;;;;6293219;22;20431;-91
2024/01/10 09:22:59;;;;;;;13.63;8.03;;;;;;;;;;6295849;22;20380;-92
2024/01/10 09:25:26;;;;;;;10.47;6.90;;;;;;;;;;6243042;22;20472;-92
2024/01/10 09:27:52;;;;;;;22.13;9.47;;;;;;;;;;6269576;22;20380;-92
2024/01/10 09:30:18;;;;;;;15.27;9.70;;;;;;;;;;6266459;22;20389;-91
2024/01/10 09:32:44;;;;;;;14.30;9.50;;;;;;;;;;6267390;22;20373;-90
2024/01/10 09:35:12;;;;;;;13.93;8.77;;;;;;;;;;6261000;22;20431;-92
2024/01/10 09:37:38;;;;;;;16.53;9.00;;;;;;;;;;6265620;22;20399;-92
2024/01/10 09:45:17;;;;;;;17.23;10.27;;;;;;;;;;6289103;22;20424;-92
2024/01/10 09:47:43;;;;;;;11.83;8.27;;;;;;;;;;6243333;22;20386;-92
2024/01/10 09:50:10;;;;;;;15.80;8.43;;;;;;;;;;6267890;22;20419;-91
2024/01/10 09:52:54;;;;;;;20.97;9.80;;;;;;;;;;6266044;22;20456;-90
2024/01/10 09:55:21;;;;;;;14.57;9.47;;;;;;;;;;6290416;22;20354;-92
2024/01/10 09:57:48;;;;;;;16.03;10.27;;;;;;;;;;6269889;22;20448;-92
2024/01/10 10:00:15;;;;;;;16.33;8.70;;;;;;;;;;6202654;23;20375;-91
2024/01/10 10:02:42;;;;;;;15.27;10.90;;;;;;;;;;6151652;23;20447;-92
2024/01/10 10:05:09;;;;;;;16.40;9.27;;;;;;;;;;6150363;23;20424;-91
2024/01/10 10:08:04;;;;;;;13.00;7.40;;;;;;;;;;6150298;23;20423;-90
2024/01/10 10:10:30;;;;;;;12.40;8.67;;;;;;;;;;6170995;23;20836;-89
2024/01/10 10:12:56;;;;;;;11.67;7.80;;;;;;;;;;6151553;23;20387;-90
2024/01/10 10:15:22;;;;;;;13.53;10.53;;;;;;;;;;6148647;23;20388;-90
2024/01/10 10:17:49;;;;;;;16.97;9.73;;;;;;;;;;6144676;23;20388;-88
2024/01/10 10:20:15;;;;;;;24.00;11.30;;;;;;;;;;6145944;23;20531;-89
2024/01/10 10:22:43;;;;;;;11.63;7.23;;;;;;;;;;6171687;23;20398;-90
2024/01/10 10:25:09;;;;;;;14.97;10.40;;;;;;;;;;6153078;23;20459;-91
2024/01/10 10:27:37;;;;;;;18.87;11.50;;;;;;;;;;6156796;23;20414;-89
2024/01/10 10:30:04;;;;;;;19.80;9.03;;;;;;;;;;6159426;22;20395;-90
2024/01/10 10:32:30;;;;;;;28.07;10.57;;;;;;;;;;6270713;22;20393;-87
2024/01/10 10:34:57;;;;;;;16.27;9.80;;;;;;;;;;6247111;22;20369;-90
2024/01/10 10:37:23;;;;;;;13.80;9.23;;;;;;;;;;6273297;22;20404;-90
2024/01/10 10:39:52;;;;;;;17.43;10.23;;;;;;;;;;6276502;22;20467;-88
2024/01/10 10:42:18;;;;;;;14.43;8.93;;;;;;;;;;6249983;22;20397;-93
2024/01/10 10:44:44;;;;;;;24.77;10.43;;;;;;;;;;6272432;22;20381;-90
2024/01/10 10:47:11;;;;;;;15.67;10.80;;;;;;;;;;6293708;22;20468;-90
2024/01/10 10:49:37;;;;;;;11.77;10.60;;;;;;;;;;6269118;22;20384;-91
2024/01/10 10:52:05;;;;;;;22.83;10.90;;;;;;;;;;6294676;22;20840;-90
2024/01/10 10:54:32;;;;;;;16.10;9.50;;;;;;;;;;6267226;22;20380;-90
2024/01/10 10:56:58;;;;;;;18.20;9.40;;;;;;;;;;6267626;22;20849;-89
2024/01/10 10:59:25;;;;;;;18.20;10.73;;;;;;;;;;6269075;22;20373;-90
2024/01/10 11:01:51;;;;;;;18.87;12.43;;;;;;;;;;6266709;22;20388;-89
2024/01/10 11:04:17;;;;;;;15.20;9.97;;;;;;;;;;6262835;22;20923;-89
2024/01/10 11:06:43;;;;;;;22.13;12.70;;;;;;;;;;6273216;22;20423;-90
2024/01/10 11:09:12;;;;;;;19.30;12.50;;;;;;;;;;6210260;23;20375;-89
2024/01/10 11:11:39;;;;;;;24.43;10.77;;;;;;;;;;6180395;23;20379;-90
2024/01/10 11:14:05;;;;;;;18.30;10.70;;;;;;;;;;6198764;23;20381;-92
2024/01/10 11:16:35;;;;;;;18.60;12.63;;;;;;;;;;6198259;23;20913;-88
2024/01/10 11:19:16;;;;;;;16.73;11.60;;;;;;;;;;6175069;23;20375;-89
2024/01/10 11:21:42;;;;;;;19.27;10.80;;;;;;;;;;6200256;23;20413;-90
2024/01/10 11:24:09;;;;;;;14.93;10.57;;;;;;;;;;6199006;23;20382;-91
2024/01/10 11:26:37;;;;;;;13.27;10.60;;;;;;;;;;6174959;23;20382;-90
2024/01/10 11:29:03;;;;;;;17.30;10.53;;;;;;;;;;6173659;23;20393;-88
2024/01/10 11:31:31;;;;;;;23.83;14.37;;;;;;;;;;6174187;23;20712;-90
2024/01/10 11:33:57;;;;;;;18.73;11.50;;;;;;;;;;6170656;23;20394;-91
2024/01/10 11:36:24;;;;;;;15.90;10.00;;;;;;;;;;6172140;23;20473;-90
2024/01/10 11:38:54;;;;;;;22.63;10.57;;;;;;;;;;6170453;23;20375;-90
2024/01/10 11:41:23;;;;;;;21.43;13.53;;;;;;;;;;6199522;22;20496;-90
2024/01/10 11:44:07;;;;;;;19.60;13.40;;;;;;;;;;6196659;23;20402;-92
2024/01/10 11:46:33;;;;;;;25.70;13.87;;;;;;;;;;6240220;22;20385;-90
2024/01/10 11:48:59;;;;;;;24.20;20.40;;;;;;;;;;6284914;22;20365;-91
2024/01/10 11:51:25;;;;;;;20.40;13.90;;;;;;;;;;6260499;22;20381;-91
2024/01/10 11:53:52;;;;;;;19.07;12.40;;;;;;;;;;6283600;22;20358;-91
2024/01/10 11:56:18;;;;;;;19.90;13.70;;;;;;;;;;6259621;22;20449;-91
2024/01/10 11:58:54;;;;;;;24.17;15.90;;;;;;;;;;6259812;22;20427;-90
2024/01/10 12:01:23;;;;;;;22.00;13.73;;;;;;;;;;6290498;22;20377;-89
2024/01/10 12:03:51;;;;;;;20.57;13.30;;;;;;;;;;6265385;22;20391;-90
2024/01/10 12:06:17;;;;;;;23.43;14.30;;;;;;;;;;6263135;22;20370;-91
2024/01/10 12:08:43;;;;;;;20.00;12.97;;;;;;;;;;6263277;22;20388;-92
2024/01/10 12:11:09;;;;;;;20.50;13.90;;;;;;;;;;6237130;22;20373;-90
2024/01/10 12:13:36;;;;;;;19.57;13.20;;;;;;;;;;6263055;22;21081;-90
2024/01/10 12:16:02;;;;;;;23.53;14.60;;;;;;;;;;6259378;22;20452;-89
2024/01/10 12:18:28;;;;;;;22.80;14.00;;;;;;;;;;6284203;22;20381;-91
2024/01/10 12:20:54;;;;;;;23.80;15.40;;;;;;;;;;6259579;22;20450;-89
2024/01/10 12:23:21;;;;;;;20.97;15.17;;;;;;;;;;6261080;22;20876;-90
2024/01/10 12:25:49;;;;;;;17.97;14.43;;;;;;;;;;6261870;22;20468;-87
2024/01/10 12:28:18;;;;;;;27.93;14.10;;;;;;;;;;6261003;22;20417;-91
2024/01/10 12:30:44;;;;;;;18.83;13.63;;;;;;;;;;6259413;22;20825;-90
2024/01/10 12:33:10;;;;;;;23.57;15.60;;;;;;;;;;6227018;23;20457;-91
2024/01/10 12:35:38;;;;;;;20.00;13.47;;;;;;;;;;6203976;23;20433;-91
2024/01/10 12:38:04;;;;;;;16.07;12.67;;;;;;;;;;6201498;23;20378;-91
2024/01/10 12:40:32;;;;;;;19.87;11.17;;;;;;;;;;6202232;23;20369;-90
2024/01/10 12:43:04;;;;;;;15.73;11.60;;;;;;;;;;6200104;23;20382;-92
2024/01/10 12:45:32;;;;;;;23.77;12.83;;;;;;;;;;6201476;23;20401;-89
2024/01/10 12:47:58;;;;;;;20.73;12.50;;;;;;;;;;6202342;23;20391;-91
2024/01/10 12:50:26;;;;;;;20.27;12.90;;;;;;;;;;6202343;23;20389;-91
2024/01/10 12:52:52;;;;;;;22.80;13.20;;;;;;;;;;6200947;23;20459;-92
2024/01/10 12:55:19;;;;;;;21.90;13.00;;;;;;;;;;6197311;23;20390;-90
2024/01/10 12:57:45;;;;;;;20.70;11.17;;;;;;;;;;6173631;23;20382;-91
2024/01/10 13:00:13;;;;;;;23.17;14.27;;;;;;;;;;6172524;23;20387;-91
2024/01/10 13:02:40;;;;;;;17.40;12.37;;;;;;;;;;6171807;23;20407;-91
2024/01/10 13:05:09;;;;;;;32.33;15.27;;;;;;;;;;6252866;22;20449;-90
2024/01/10 13:07:38;;;;;;;23.23;13.30;;;;;;;;;;6255965;22;20426;-90
2024/01/10 13:10:04;;;;;;;18.07;12.07;;;;;;;;;;6256273;22;21248;-89
2024/01/10 13:12:30;;;;;;;19.53;13.50;;;;;;;;;;6254356;22;20467;-90
2024/01/10 13:14:59;;;;;;;20.13;12.37;;;;;;;;;;6255145;22;20377;-89
2024/01/10 13:17:25;;;;;;;17.57;11.47;;;;;;;;;;6255225;22;20436;-91
2024/01/10 13:19:53;;;;;;;12.87;9.87;;;;;;;;;;6255493;22;20385;-89
2024/01/10 13:22:19;;;;;;;20.83;13.07;;;;;;;;;;6255814;22;20396;-88
2024/01/10 13:24:48;;;;;;;19.03;12.87;;;;;;;;;;6255550;22;20389;-89
2024/01/10 13:27:14;;;;;;;22.03;13.20;;;;;;;;;;6277581;22;20369;-91
2024/01/10 13:29:40;;;;;;;21.43;11.53;;;;;;;;;;6255758;22;20900;-90
2024/01/10 13:32:07;;;;;;;23.20;12.10;;;;;;;;;;6255340;22;20377;-89
2024/01/10 13:34:33;;;;;;;14.07;12.00;;;;;;;;;;6260686;22;20444;-89
2024/01/10 13:36:59;;;;;;;21.70;13.73;;;;;;;;;;6255575;22;20436;-89
2024/01/10 13:39:25;;;;;;;22.53;11.80;;;;;;;;;;6257823;22;20386;-89
2024/01/10 13:41:51;;;;;;;24.23;15.47;;;;;;;;;;6254504;22;20464;-91
2024/01/10 13:44:17;;;;;;;19.83;12.27;;;;;;;;;;6255644;22;20384;-90
2024/01/10 13:46:43;;;;;;;22.20;15.20;;;;;;;;;;6256385;22;20801;-90
2024/01/10 13:49:12;;;;;;;21.83;13.20;;;;;;;;;;6256585;22;20381;-89
2024/01/10 13:51:38;;;;;;;22.23;12.43;;;;;;;;;;6256293;22;20844;-89
2024/01/10 13:54:04;;;;;;;18.27;11.57;;;;;;;;;;6257053;22;20381;-90
2024/01/10 13:56:31;;;;;;;18.30;12.70;;;;;;;;;;6255678;22;20428;-90
2024/01/10 13:58:58;;;;;;;25.23;14.80;;;;;;;;;;6257894;22;20377;-92
2024/01/10 14:01:24;;;;;;;19.47;10.80;;;;;;;;;;6256491;22;20382;-91
2024/01/10 14:03:50;;;;;;;18.83;12.50;;;;;;;;;;6256189;22;20435;-90
2024/01/10 14:06:16;;;;;;;14.80;11.10;;;;;;;;;;6255381;22;20645;-92
2024/01/10 14:08:46;;;;;;;22.40;13.13;;;;;;;;;;6257784;22;20386;-91
2024/01/10 14:11:12;;;;;;;21.60;11.67;;;;;;;;;;6257278;22;20385;-91
2024/01/10 14:13:38;;;;;;;22.10;12.40;;;;;;;;;;6254140;22;20388;-90
2024/01/10 14:16:04;;;;;;;18.00;10.93;;;;;;;;;;6254623;22;20467;-90
2024/01/10 14:18:30;;;;;;;14.40;10.37;;;;;;;;;;6255546;22;20412;-90
2024/01/10 14:20:56;;;;;;;18.90;11.23;;;;;;;;;;6255842;22;20377;-90
2024/01/10 14:23:22;;;;;;;21.93;12.57;;;;;;;;;;6280856;22;20377;-88
2024/01/10 14:25:48;;;;;;;20.03;13.33;;;;;;;;;;6256532;22;20513;-90
2024/01/10 14:28:14;;;;;;;22.57;13.07;;;;;;;;;;6254954;22;20378;-91
2024/01/10 14:30:40;;;;;;;22.70;11.07;;;;;;;;;;6254962;22;20378;-91
2024/01/10 14:33:06;;;;;;;20.73;12.30;;;;;;;;;;6256247;22;20704;-89
2024/01/10 14:35:32;;;;;;;17.10;12.57;;;;;;;;;;6281311;22;20409;-88
2024/01/10 14:37:58;;;;;;;14.53;12.10;;;;;;;;;;6256318;22;20408;-91
2024/01/10 14:40:25;;;;;;;24.57;14.20;;;;;;;;;;6258168;22;20358;-89